sensor_id;sensor_type;location;lat;lon;timestamp;P1;durP1;ratioP1;P2;durP2;ratioP2
29330;SDS011;16331;52.528;13.342;2023-04-24T00:00:34;7.95;;;3.95;;
29330;SDS011;16331;52.528;13.342;2023-04-24T00:03:01;6.28;;;3.67;;
29330;SDS011;16331;52.528;13.342;2023-04-24T00:05:28;7.72;;;4.03;;
29330;SDS011;16331;52.528;13.342;2023-04-24T00:08:00;5.72;;;3.90;;
29330;SDS011;16331;52.528;13.342;2023-04-24T00:10:30;6.32;;;4.05;;
29330;SDS011;16331;52.528;13.342;2023-04-24T00:12:56;7.50;;;3.42;;
29330;SDS011;16331;52.528;13.342;2023-04-24T00:15:23;8.00;;;3.78;;
29330;SDS011;16331;52.528;13.342;2023-04-24T00:17:55;7.43;;;4.07;;
29330;SDS011;16331;52.528;13.342;2023-04-24T00:20:22;11.13;;;4.45;;
29330;SDS011;16331;52.528;13.342;2023-04-24T00:22:48;10.43;;;4.72;;
29330;SDS011;16331;52.528;13.342;2023-04-24T00:25:14;9.45;;;4.10;;
29330;SDS011;16331;52.528;13.342;2023-04-24T00:27:44;6.40;;;4.28;;
29330;SDS011;16331;52.528;13.342;2023-04-24T00:30:11;5.95;;;3.72;;
29330;SDS011;16331;52.528;13.342;2023-04-24T00:32:37;6.20;;;4.22;;
29330;SDS011;16331;52.528;13.342;2023-04-24T00:35:06;7.35;;;4.20;;
29330;SDS011;16331;52.528;13.342;2023-04-24T00:37:33;7.78;;;4.18;;
29330;SDS011;16331;52.528;13.342;2023-04-24T00:39:59;8.35;;;4.60;;
29330;SDS011;16331;52.528;13.342;2023-04-24T00:42:26;10.15;;;4.38;;
29330;SDS011;16331;52.528;13.342;2023-04-24T00:44:57;7.83;;;3.77;;
29330;SDS011;16331;52.528;13.342;2023-04-24T00:47:25;6.88;;;4.45;;
29330;SDS011;16331;52.528;13.342;2023-04-24T00:49:51;6.82;;;4.45;;
29330;SDS011;16331;52.528;13.342;2023-04-24T00:52:25;7.80;;;4.95;;
29330;SDS011;16331;52.528;13.342;2023-04-24T00:54:51;8.00;;;4.65;;
29330;SDS011;16331;52.528;13.342;2023-04-24T00:57:19;7.25;;;4.43;;
29330;SDS011;16331;52.528;13.342;2023-04-24T00:59:45;11.95;;;4.78;;
29330;SDS011;16331;52.528;13.342;2023-04-24T01:02:12;10.32;;;4.78;;
29330;SDS011;16331;52.528;13.342;2023-04-24T01:04:40;7.40;;;4.07;;
29330;SDS011;16331;52.528;13.342;2023-04-24T01:07:11;6.00;;;4.10;;
29330;SDS011;16331;52.528;13.342;2023-04-24T01:09:38;6.50;;;4.38;;
29330;SDS011;16331;52.528;13.342;2023-04-24T01:12:09;8.07;;;4.05;;
29330;SDS011;16331;52.528;13.342;2023-04-24T01:14:36;7.75;;;4.50;;
29330;SDS011;16331;52.528;13.342;2023-04-24T01:17:05;7.75;;;4.10;;
29330;SDS011;16331;52.528;13.342;2023-04-24T01:19:35;6.00;;;4.35;;
29330;SDS011;16331;52.528;13.342;2023-04-24T01:22:02;5.75;;;4.10;;
29330;SDS011;16331;52.528;13.342;2023-04-24T01:24:35;8.48;;;4.75;;
29330;SDS011;16331;52.528;13.342;2023-04-24T01:27:02;6.72;;;4.00;;
29330;SDS011;16331;52.528;13.342;2023-04-24T01:29:29;7.50;;;4.60;;
29330;SDS011;16331;52.528;13.342;2023-04-24T01:31:55;7.93;;;4.10;;
29330;SDS011;16331;52.528;13.342;2023-04-24T01:34:23;7.80;;;4.43;;
29330;SDS011;16331;52.528;13.342;2023-04-24T01:36:52;6.50;;;4.68;;
29330;SDS011;16331;52.528;13.342;2023-04-24T01:39:21;5.65;;;3.97;;
29330;SDS011;16331;52.528;13.342;2023-04-24T01:41:54;7.13;;;4.68;;
29330;SDS011;16331;52.528;13.342;2023-04-24T01:44:21;7.13;;;4.72;;
29330;SDS011;16331;52.528;13.342;2023-04-24T01:46:48;7.05;;;4.40;;
29330;SDS011;16331;52.528;13.342;2023-04-24T01:49:14;9.48;;;4.72;;
29330;SDS011;16331;52.528;13.342;2023-04-24T01:51:41;9.48;;;4.82;;
29330;SDS011;16331;52.528;13.342;2023-04-24T01:54:07;7.47;;;4.65;;
29330;SDS011;16331;52.528;13.342;2023-04-24T01:56:34;8.38;;;4.75;;
29330;SDS011;16331;52.528;13.342;2023-04-24T01:59:02;7.00;;;4.32;;
29330;SDS011;16331;52.528;13.342;2023-04-24T02:01:33;8.95;;;5.10;;
29330;SDS011;16331;52.528;13.342;2023-04-24T02:04:03;9.50;;;5.03;;
29330;SDS011;16331;52.528;13.342;2023-04-24T02:06:31;7.60;;;4.95;;
29330;SDS011;16331;52.528;13.342;2023-04-24T02:09:00;8.05;;;5.15;;
29330;SDS011;16331;52.528;13.342;2023-04-24T02:11:43;9.85;;;4.72;;
29330;SDS011;16331;52.528;13.342;2023-04-24T02:14:10;6.88;;;4.75;;
29330;SDS011;16331;52.528;13.342;2023-04-24T02:16:36;11.50;;;5.35;;
29330;SDS011;16331;52.528;13.342;2023-04-24T02:19:05;7.07;;;4.72;;
29330;SDS011;16331;52.528;13.342;2023-04-24T02:21:34;8.25;;;5.00;;
29330;SDS011;16331;52.528;13.342;2023-04-24T02:24:00;8.60;;;5.25;;
29330;SDS011;16331;52.528;13.342;2023-04-24T02:26:27;8.70;;;5.07;;
29330;SDS011;16331;52.528;13.342;2023-04-24T02:28:53;7.35;;;4.55;;
29330;SDS011;16331;52.528;13.342;2023-04-24T02:31:19;7.45;;;4.75;;
29330;SDS011;16331;52.528;13.342;2023-04-24T02:33:45;8.63;;;5.38;;
29330;SDS011;16331;52.528;13.342;2023-04-24T02:36:14;7.70;;;4.85;;
29330;SDS011;16331;52.528;13.342;2023-04-24T02:38:40;8.50;;;5.30;;
29330;SDS011;16331;52.528;13.342;2023-04-24T02:41:08;6.70;;;4.65;;
29330;SDS011;16331;52.528;13.342;2023-04-24T02:43:35;8.30;;;4.90;;
29330;SDS011;16331;52.528;13.342;2023-04-24T02:46:06;9.15;;;5.32;;
29330;SDS011;16331;52.528;13.342;2023-04-24T02:48:32;7.65;;;5.03;;
29330;SDS011;16331;52.528;13.342;2023-04-24T02:50:58;9.90;;;5.00;;
29330;SDS011;16331;52.528;13.342;2023-04-24T02:53:24;6.18;;;4.63;;
29330;SDS011;16331;52.528;13.342;2023-04-24T02:55:50;8.20;;;5.25;;
29330;SDS011;16331;52.528;13.342;2023-04-24T02:58:17;8.27;;;5.68;;
29330;SDS011;16331;52.528;13.342;2023-04-24T03:00:45;8.57;;;5.65;;
29330;SDS011;16331;52.528;13.342;2023-04-24T03:03:13;10.80;;;5.57;;
29330;SDS011;16331;52.528;13.342;2023-04-24T03:05:48;9.07;;;5.32;;
29330;SDS011;16331;52.528;13.342;2023-04-24T03:08:16;8.93;;;5.13;;
29330;SDS011;16331;52.528;13.342;2023-04-24T03:10:43;9.15;;;5.50;;
29330;SDS011;16331;52.528;13.342;2023-04-24T03:13:11;8.68;;;6.25;;
29330;SDS011;16331;52.528;13.342;2023-04-24T03:15:38;8.68;;;5.30;;
29330;SDS011;16331;52.528;13.342;2023-04-24T03:18:04;10.05;;;5.28;;
29330;SDS011;16331;52.528;13.342;2023-04-24T03:20:34;9.93;;;5.32;;
29330;SDS011;16331;52.528;13.342;2023-04-24T03:23:01;9.10;;;4.75;;
29330;SDS011;16331;52.528;13.342;2023-04-24T03:25:29;13.18;;;5.22;;
29330;SDS011;16331;52.528;13.342;2023-04-24T03:27:55;10.20;;;5.43;;
29330;SDS011;16331;52.528;13.342;2023-04-24T03:30:23;8.40;;;5.47;;
29330;SDS011;16331;52.528;13.342;2023-04-24T03:32:49;9.90;;;5.53;;
29330;SDS011;16331;52.528;13.342;2023-04-24T03:35:17;7.65;;;5.45;;
29330;SDS011;16331;52.528;13.342;2023-04-24T03:37:46;8.52;;;5.00;;
29330;SDS011;16331;52.528;13.342;2023-04-24T03:40:14;8.70;;;5.85;;
29330;SDS011;16331;52.528;13.342;2023-04-24T03:42:41;9.13;;;5.68;;
29330;SDS011;16331;52.528;13.342;2023-04-24T03:45:08;8.07;;;4.85;;
29330;SDS011;16331;52.528;13.342;2023-04-24T03:47:36;7.68;;;4.90;;
29330;SDS011;16331;52.528;13.342;2023-04-24T03:50:05;9.20;;;4.95;;
29330;SDS011;16331;52.528;13.342;2023-04-24T03:52:32;9.20;;;4.90;;
29330;SDS011;16331;52.528;13.342;2023-04-24T03:54:59;8.10;;;5.15;;
29330;SDS011;16331;52.528;13.342;2023-04-24T03:57:26;7.78;;;4.47;;
29330;SDS011;16331;52.528;13.342;2023-04-24T03:59:52;9.73;;;4.93;;
29330;SDS011;16331;52.528;13.342;2023-04-24T04:02:20;16.83;;;6.20;;
29330;SDS011;16331;52.528;13.342;2023-04-24T04:04:48;9.85;;;4.95;;
29330;SDS011;16331;52.528;13.342;2023-04-24T04:07:14;8.10;;;5.13;;
29330;SDS011;16331;52.528;13.342;2023-04-24T04:09:40;8.10;;;4.80;;
29330;SDS011;16331;52.528;13.342;2023-04-24T04:12:08;7.90;;;5.10;;
29330;SDS011;16331;52.528;13.342;2023-04-24T04:14:34;9.90;;;4.60;;
29330;SDS011;16331;52.528;13.342;2023-04-24T04:17:08;8.80;;;4.50;;
29330;SDS011;16331;52.528;13.342;2023-04-24T04:19:36;9.40;;;5.15;;
29330;SDS011;16331;52.528;13.342;2023-04-24T04:22:03;8.65;;;4.43;;
29330;SDS011;16331;52.528;13.342;2023-04-24T04:24:30;11.25;;;3.92;;
29330;SDS011;16331;52.528;13.342;2023-04-24T04:26:56;8.75;;;4.53;;
29330;SDS011;16331;52.528;13.342;2023-04-24T04:29:24;9.70;;;4.38;;
29330;SDS011;16331;52.528;13.342;2023-04-24T04:31:51;8.50;;;4.03;;
29330;SDS011;16331;52.528;13.342;2023-04-24T04:34:20;6.45;;;4.00;;
29330;SDS011;16331;52.528;13.342;2023-04-24T04:36:47;6.72;;;4.15;;
29330;SDS011;16331;52.528;13.342;2023-04-24T04:39:14;7.22;;;3.58;;
29330;SDS011;16331;52.528;13.342;2023-04-24T04:41:44;5.75;;;3.97;;
29330;SDS011;16331;52.528;13.342;2023-04-24T04:44:14;5.75;;;3.85;;
29330;SDS011;16331;52.528;13.342;2023-04-24T04:46:41;6.13;;;4.18;;
29330;SDS011;16331;52.528;13.342;2023-04-24T04:49:07;6.70;;;3.70;;
29330;SDS011;16331;52.528;13.342;2023-04-24T04:51:35;6.10;;;3.95;;
29330;SDS011;16331;52.528;13.342;2023-04-24T04:54:02;7.60;;;3.95;;
29330;SDS011;16331;52.528;13.342;2023-04-24T04:56:30;5.65;;;3.78;;
29330;SDS011;16331;52.528;13.342;2023-04-24T04:58:57;9.00;;;4.38;;
29330;SDS011;16331;52.528;13.342;2023-04-24T05:01:25;4.72;;;3.25;;
29330;SDS011;16331;52.528;13.342;2023-04-24T05:03:52;6.32;;;3.45;;
29330;SDS011;16331;52.528;13.342;2023-04-24T05:06:18;7.65;;;3.70;;
29330;SDS011;16331;52.528;13.342;2023-04-24T05:08:45;7.28;;;3.65;;
29330;SDS011;16331;52.528;13.342;2023-04-24T05:11:11;7.95;;;3.40;;
29330;SDS011;16331;52.528;13.342;2023-04-24T05:13:37;6.78;;;3.67;;
29330;SDS011;16331;52.528;13.342;2023-04-24T05:16:03;7.43;;;3.88;;
29330;SDS011;16331;52.528;13.342;2023-04-24T05:18:33;7.13;;;3.53;;
29330;SDS011;16331;52.528;13.342;2023-04-24T05:21:01;5.45;;;3.65;;
29330;SDS011;16331;52.528;13.342;2023-04-24T05:23:28;5.13;;;3.20;;
29330;SDS011;16331;52.528;13.342;2023-04-24T05:25:54;4.30;;;3.17;;
29330;SDS011;16331;52.528;13.342;2023-04-24T05:28:20;6.88;;;3.72;;
29330;SDS011;16331;52.528;13.342;2023-04-24T05:30:46;3.53;;;2.78;;
29330;SDS011;16331;52.528;13.342;2023-04-24T05:33:15;6.90;;;4.22;;
29330;SDS011;16331;52.528;13.342;2023-04-24T05:35:41;5.65;;;2.80;;
29330;SDS011;16331;52.528;13.342;2023-04-24T05:38:12;6.20;;;3.53;;
29330;SDS011;16331;52.528;13.342;2023-04-24T05:40:41;5.85;;;3.28;;
29330;SDS011;16331;52.528;13.342;2023-04-24T05:43:08;4.53;;;2.67;;
29330;SDS011;16331;52.528;13.342;2023-04-24T05:45:34;4.25;;;3.20;;
29330;SDS011;16331;52.528;13.342;2023-04-24T05:48:01;5.57;;;2.95;;
29330;SDS011;16331;52.528;13.342;2023-04-24T05:50:27;4.45;;;2.60;;
29330;SDS011;16331;52.528;13.342;2023-04-24T05:52:54;4.15;;;2.58;;
29330;SDS011;16331;52.528;13.342;2023-04-24T05:55:24;4.68;;;3.03;;
29330;SDS011;16331;52.528;13.342;2023-04-24T05:57:51;5.30;;;2.30;;
29330;SDS011;16331;52.528;13.342;2023-04-24T06:00:17;3.67;;;2.65;;
29330;SDS011;16331;52.528;13.342;2023-04-24T06:02:46;4.13;;;2.67;;
29330;SDS011;16331;52.528;13.342;2023-04-24T06:05:12;6.85;;;2.70;;
29330;SDS011;16331;52.528;13.342;2023-04-24T06:07:40;4.18;;;2.40;;
29330;SDS011;16331;52.528;13.342;2023-04-24T06:10:09;3.45;;;2.22;;
29330;SDS011;16331;52.528;13.342;2023-04-24T06:12:37;2.97;;;1.75;;
29330;SDS011;16331;52.528;13.342;2023-04-24T06:15:04;6.72;;;2.40;;
29330;SDS011;16331;52.528;13.342;2023-04-24T06:17:32;5.90;;;2.10;;
29330;SDS011;16331;52.528;13.342;2023-04-24T06:19:59;2.78;;;1.83;;
29330;SDS011;16331;52.528;13.342;2023-04-24T06:22:25;5.82;;;1.80;;
29330;SDS011;16331;52.528;13.342;2023-04-24T06:24:51;4.47;;;1.75;;
29330;SDS011;16331;52.528;13.342;2023-04-24T06:27:17;2.60;;;1.75;;
29330;SDS011;16331;52.528;13.342;2023-04-24T06:29:44;6.38;;;2.08;;
29330;SDS011;16331;52.528;13.342;2023-04-24T06:32:10;9.70;;;1.95;;
29330;SDS011;16331;52.528;13.342;2023-04-24T06:34:36;5.47;;;1.42;;
29330;SDS011;16331;52.528;13.342;2023-04-24T06:37:02;3.67;;;1.67;;
29330;SDS011;16331;52.528;13.342;2023-04-24T06:39:28;7.10;;;1.30;;
29330;SDS011;16331;52.528;13.342;2023-04-24T06:41:54;4.75;;;1.13;;
29330;SDS011;16331;52.528;13.342;2023-04-24T06:44:20;2.60;;;1.75;;
29330;SDS011;16331;52.528;13.342;2023-04-24T06:46:46;4.18;;;1.23;;
29330;SDS011;16331;52.528;13.342;2023-04-24T06:49:13;4.80;;;1.95;;
29330;SDS011;16331;52.528;13.342;2023-04-24T06:51:41;3.10;;;1.20;;
29330;SDS011;16331;52.528;13.342;2023-04-24T06:54:13;7.10;;;1.20;;
29330;SDS011;16331;52.528;13.342;2023-04-24T06:56:40;2.83;;;1.20;;
29330;SDS011;16331;52.528;13.342;2023-04-24T06:59:07;2.80;;;0.80;;
29330;SDS011;16331;52.528;13.342;2023-04-24T07:01:33;2.35;;;1.20;;
29330;SDS011;16331;52.528;13.342;2023-04-24T07:03:59;2.20;;;0.80;;
29330;SDS011;16331;52.528;13.342;2023-04-24T07:06:26;2.78;;;1.15;;
29330;SDS011;16331;52.528;13.342;2023-04-24T07:08:53;1.55;;;0.70;;
29330;SDS011;16331;52.528;13.342;2023-04-24T07:11:23;2.33;;;0.98;;
29330;SDS011;16331;52.528;13.342;2023-04-24T07:13:54;1.38;;;1.08;;
29330;SDS011;16331;52.528;13.342;2023-04-24T07:16:20;5.18;;;1.00;;
29330;SDS011;16331;52.528;13.342;2023-04-24T07:18:47;1.45;;;0.70;;
29330;SDS011;16331;52.528;13.342;2023-04-24T07:21:17;1.80;;;0.70;;
29330;SDS011;16331;52.528;13.342;2023-04-24T07:23:44;1.63;;;0.60;;
29330;SDS011;16331;52.528;13.342;2023-04-24T07:26:10;0.68;;;0.52;;
29330;SDS011;16331;52.528;13.342;2023-04-24T07:28:37;2.88;;;0.70;;
29330;SDS011;16331;52.528;13.342;2023-04-24T07:31:04;1.38;;;0.80;;
29330;SDS011;16331;52.528;13.342;2023-04-24T07:33:31;0.98;;;0.50;;
29330;SDS011;16331;52.528;13.342;2023-04-24T07:35:58;2.80;;;0.55;;
29330;SDS011;16331;52.528;13.342;2023-04-24T07:38:24;2.25;;;0.95;;
29330;SDS011;16331;52.528;13.342;2023-04-24T07:40:54;2.28;;;0.60;;
29330;SDS011;16331;52.528;13.342;2023-04-24T07:43:20;0.93;;;0.70;;
29330;SDS011;16331;52.528;13.342;2023-04-24T07:45:47;0.75;;;0.45;;
29330;SDS011;16331;52.528;13.342;2023-04-24T07:48:13;1.65;;;0.70;;
29330;SDS011;16331;52.528;13.342;2023-04-24T07:50:41;1.85;;;0.55;;
29330;SDS011;16331;52.528;13.342;2023-04-24T07:53:10;0.73;;;0.50;;
29330;SDS011;16331;52.528;13.342;2023-04-24T07:55:36;1.40;;;0.63;;
29330;SDS011;16331;52.528;13.342;2023-04-24T07:58:02;4.20;;;0.65;;
29330;SDS011;16331;52.528;13.342;2023-04-24T08:00:28;1.10;;;0.50;;
29330;SDS011;16331;52.528;13.342;2023-04-24T08:02:54;0.60;;;0.43;;
29330;SDS011;16331;52.528;13.342;2023-04-24T08:05:21;1.02;;;0.47;;
29330;SDS011;16331;52.528;13.342;2023-04-24T08:07:47;0.55;;;0.40;;
29330;SDS011;16331;52.528;13.342;2023-04-24T08:10:15;1.33;;;0.60;;
29330;SDS011;16331;52.528;13.342;2023-04-24T08:12:41;1.33;;;0.60;;
29330;SDS011;16331;52.528;13.342;2023-04-24T08:15:08;1.00;;;0.57;;
29330;SDS011;16331;52.528;13.342;2023-04-24T08:17:35;2.28;;;0.40;;
29330;SDS011;16331;52.528;13.342;2023-04-24T08:20:01;1.13;;;0.50;;
29330;SDS011;16331;52.528;13.342;2023-04-24T08:22:30;1.40;;;0.40;;
29330;SDS011;16331;52.528;13.342;2023-04-24T08:24:56;0.65;;;0.45;;
29330;SDS011;16331;52.528;13.342;2023-04-24T08:27:25;0.75;;;0.55;;
29330;SDS011;16331;52.528;13.342;2023-04-24T08:29:52;1.25;;;0.60;;
29330;SDS011;16331;52.528;13.342;2023-04-24T08:32:19;1.45;;;0.32;;
29330;SDS011;16331;52.528;13.342;2023-04-24T08:34:45;2.97;;;0.60;;
29330;SDS011;16331;52.528;13.342;2023-04-24T08:37:11;0.73;;;0.50;;
29330;SDS011;16331;52.528;13.342;2023-04-24T08:39:38;0.45;;;0.40;;
29330;SDS011;16331;52.528;13.342;2023-04-24T08:42:04;1.00;;;0.60;;
29330;SDS011;16331;52.528;13.342;2023-04-24T08:44:33;0.90;;;0.50;;
29330;SDS011;16331;52.528;13.342;2023-04-24T08:47:01;1.20;;;0.47;;
29330;SDS011;16331;52.528;13.342;2023-04-24T08:49:29;1.50;;;0.75;;
29330;SDS011;16331;52.528;13.342;2023-04-24T08:51:55;3.25;;;0.57;;
29330;SDS011;16331;52.528;13.342;2023-04-24T08:54:22;4.78;;;1.08;;
29330;SDS011;16331;52.528;13.342;2023-04-24T08:56:49;1.88;;;0.50;;
29330;SDS011;16331;52.528;13.342;2023-04-24T08:59:18;1.17;;;0.68;;
29330;SDS011;16331;52.528;13.342;2023-04-24T09:01:46;0.60;;;0.50;;
29330;SDS011;16331;52.528;13.342;2023-04-24T09:04:16;1.83;;;0.60;;
29330;SDS011;16331;52.528;13.342;2023-04-24T09:06:46;0.73;;;0.52;;
29330;SDS011;16331;52.528;13.342;2023-04-24T09:09:13;0.85;;;0.40;;
29330;SDS011;16331;52.528;13.342;2023-04-24T09:11:43;1.13;;;0.63;;
29330;SDS011;16331;52.528;13.342;2023-04-24T09:14:09;3.58;;;0.60;;
29330;SDS011;16331;52.528;13.342;2023-04-24T09:16:36;3.45;;;1.45;;
29330;SDS011;16331;52.528;13.342;2023-04-24T09:19:02;2.63;;;0.47;;
29330;SDS011;16331;52.528;13.342;2023-04-24T09:21:32;4.13;;;0.63;;
29330;SDS011;16331;52.528;13.342;2023-04-24T09:24:00;0.85;;;0.40;;
29330;SDS011;16331;52.528;13.342;2023-04-24T09:26:31;0.40;;;0.40;;
29330;SDS011;16331;52.528;13.342;2023-04-24T09:29:00;0.65;;;0.40;;
29330;SDS011;16331;52.528;13.342;2023-04-24T09:31:27;0.95;;;0.70;;
29330;SDS011;16331;52.528;13.342;2023-04-24T09:33:55;1.13;;;0.93;;
29330;SDS011;16331;52.528;13.342;2023-04-24T09:36:27;2.22;;;0.73;;
29330;SDS011;16331;52.528;13.342;2023-04-24T09:39:02;1.20;;;0.90;;
29330;SDS011;16331;52.528;13.342;2023-04-24T09:41:35;4.10;;;0.73;;
29330;SDS011;16331;52.528;13.342;2023-04-24T09:44:23;0.90;;;0.60;;
29330;SDS011;16331;52.528;13.342;2023-04-24T09:46:53;4.03;;;0.97;;
29330;SDS011;16331;52.528;13.342;2023-04-24T09:49:25;2.60;;;1.20;;
29330;SDS011;16331;52.528;13.342;2023-04-24T09:51:52;4.00;;;1.10;;
29330;SDS011;16331;52.528;13.342;2023-04-24T09:54:35;2.72;;;0.73;;
29330;SDS011;16331;52.528;13.342;2023-04-24T09:57:02;1.17;;;0.73;;
29330;SDS011;16331;52.528;13.342;2023-04-24T09:59:29;2.17;;;0.90;;
29330;SDS011;16331;52.528;13.342;2023-04-24T10:01:56;3.67;;;0.73;;
29330;SDS011;16331;52.528;13.342;2023-04-24T10:04:24;0.73;;;0.50;;
29330;SDS011;16331;52.528;13.342;2023-04-24T10:06:52;1.00;;;0.63;;
29330;SDS011;16331;52.528;13.342;2023-04-24T10:09:21;0.73;;;0.50;;
29330;SDS011;16331;52.528;13.342;2023-04-24T10:11:49;1.17;;;0.50;;
29330;SDS011;16331;52.528;13.342;2023-04-24T10:14:21;0.85;;;0.60;;
29330;SDS011;16331;52.528;13.342;2023-04-24T10:16:51;0.60;;;0.40;;
29330;SDS011;16331;52.528;13.342;2023-04-24T10:19:19;2.20;;;0.52;;
29330;SDS011;16331;52.528;13.342;2023-04-24T10:21:47;0.57;;;0.50;;
29330;SDS011;16331;52.528;13.342;2023-04-24T10:24:14;0.93;;;0.60;;
29330;SDS011;16331;52.528;13.342;2023-04-24T10:26:45;0.85;;;0.50;;
29330;SDS011;16331;52.528;13.342;2023-04-24T10:29:13;1.48;;;0.60;;
29330;SDS011;16331;52.528;13.342;2023-04-24T10:31:41;1.67;;;0.75;;
29330;SDS011;16331;52.528;13.342;2023-04-24T10:34:12;5.03;;;0.70;;
29330;SDS011;16331;52.528;13.342;2023-04-24T10:36:42;2.80;;;0.50;;
29330;SDS011;16331;52.528;13.342;2023-04-24T10:39:19;0.90;;;0.57;;
29330;SDS011;16331;52.528;13.342;2023-04-24T10:41:48;2.05;;;0.70;;
29330;SDS011;16331;52.528;13.342;2023-04-24T10:44:15;1.35;;;0.68;;
29330;SDS011;16331;52.528;13.342;2023-04-24T10:46:45;0.77;;;0.65;;
29330;SDS011;16331;52.528;13.342;2023-04-24T10:49:17;3.28;;;0.90;;
29330;SDS011;16331;52.528;13.342;2023-04-24T10:51:54;2.15;;;0.63;;
29330;SDS011;16331;52.528;13.342;2023-04-24T10:54:33;1.48;;;0.57;;
29330;SDS011;16331;52.528;13.342;2023-04-24T10:57:27;2.25;;;0.63;;
29330;SDS011;16331;52.528;13.342;2023-04-24T11:02:45;0.98;;;0.50;;
29330;SDS011;16331;52.528;13.342;2023-04-24T11:05:18;1.55;;;0.50;;
29330;SDS011;16331;52.528;13.342;2023-04-24T11:10:44;1.17;;;0.40;;
29330;SDS011;16331;52.528;13.342;2023-04-24T11:13:15;1.75;;;0.80;;
29330;SDS011;16331;52.528;13.342;2023-04-24T11:15:46;0.63;;;0.47;;
29330;SDS011;16331;52.528;13.342;2023-04-24T11:18:43;0.70;;;0.40;;
29330;SDS011;16331;52.528;13.342;2023-04-24T11:21:18;1.33;;;0.60;;
29330;SDS011;16331;52.528;13.342;2023-04-24T11:23:45;2.83;;;1.00;;
29330;SDS011;16331;52.528;13.342;2023-04-24T11:26:12;4.40;;;0.75;;
29330;SDS011;16331;52.528;13.342;2023-04-24T11:28:46;0.95;;;0.50;;
29330;SDS011;16331;52.528;13.342;2023-04-24T11:34:15;0.88;;;0.50;;
29330;SDS011;16331;52.528;13.342;2023-04-24T11:36:48;1.95;;;0.63;;
29330;SDS011;16331;52.528;13.342;2023-04-24T11:39:17;3.78;;;1.20;;
29330;SDS011;16331;52.528;13.342;2023-04-24T11:41:43;5.88;;;1.30;;
29330;SDS011;16331;52.528;13.342;2023-04-24T11:44:13;3.25;;;1.33;;
29330;SDS011;16331;52.528;13.342;2023-04-24T11:46:39;6.38;;;1.63;;
29330;SDS011;16331;52.528;13.342;2023-04-24T11:49:06;1.90;;;0.90;;
29330;SDS011;16331;52.528;13.342;2023-04-24T11:51:32;5.10;;;1.30;;
29330;SDS011;16331;52.528;13.342;2023-04-24T11:54:00;2.72;;;1.58;;
29330;SDS011;16331;52.528;13.342;2023-04-24T11:56:26;1.35;;;1.02;;
29330;SDS011;16331;52.528;13.342;2023-04-24T11:58:52;1.40;;;0.73;;
29330;SDS011;16331;52.528;13.342;2023-04-24T12:01:19;0.82;;;0.60;;
29330;SDS011;16331;52.528;13.342;2023-04-24T12:03:49;1.55;;;0.88;;
29330;SDS011;16331;52.528;13.342;2023-04-24T12:08:47;0.93;;;0.65;;
29330;SDS011;16331;52.528;13.342;2023-04-24T12:11:14;1.65;;;0.73;;
29330;SDS011;16331;52.528;13.342;2023-04-24T12:13:42;2.47;;;0.70;;
29330;SDS011;16331;52.528;13.342;2023-04-24T12:16:09;2.40;;;0.70;;
29330;SDS011;16331;52.528;13.342;2023-04-24T12:18:41;0.60;;;0.45;;
29330;SDS011;16331;52.528;13.342;2023-04-24T12:21:18;0.82;;;0.50;;
29330;SDS011;16331;52.528;13.342;2023-04-24T12:23:46;2.08;;;0.60;;
29330;SDS011;16331;52.528;13.342;2023-04-24T12:26:18;3.40;;;0.95;;
29330;SDS011;16331;52.528;13.342;2023-04-24T12:28:46;1.65;;;0.40;;
29330;SDS011;16331;52.528;13.342;2023-04-24T12:31:16;0.63;;;0.30;;
29330;SDS011;16331;52.528;13.342;2023-04-24T12:33:45;2.97;;;0.68;;
29330;SDS011;16331;52.528;13.342;2023-04-24T12:36:11;9.93;;;0.68;;
29330;SDS011;16331;52.528;13.342;2023-04-24T12:38:39;3.08;;;0.55;;
29330;SDS011;16331;52.528;13.342;2023-04-24T12:41:10;0.77;;;0.50;;
29330;SDS011;16331;52.528;13.342;2023-04-24T12:43:37;1.23;;;0.52;;
29330;SDS011;16331;52.528;13.342;2023-04-24T12:46:03;3.40;;;0.50;;
29330;SDS011;16331;52.528;13.342;2023-04-24T12:48:30;2.10;;;0.63;;
29330;SDS011;16331;52.528;13.342;2023-04-24T12:50:57;2.83;;;0.50;;
29330;SDS011;16331;52.528;13.342;2023-04-24T12:53:26;4.13;;;0.80;;
29330;SDS011;16331;52.528;13.342;2023-04-24T12:55:54;1.25;;;0.60;;
29330;SDS011;16331;52.528;13.342;2023-04-24T12:58:21;4.25;;;0.70;;
29330;SDS011;16331;52.528;13.342;2023-04-24T13:00:47;1.08;;;0.65;;
29330;SDS011;16331;52.528;13.342;2023-04-24T13:03:14;1.73;;;0.65;;
29330;SDS011;16331;52.528;13.342;2023-04-24T13:05:41;1.40;;;0.70;;
29330;SDS011;16331;52.528;13.342;2023-04-24T13:08:08;4.25;;;1.00;;
29330;SDS011;16331;52.528;13.342;2023-04-24T13:10:38;2.13;;;0.50;;
29330;SDS011;16331;52.528;13.342;2023-04-24T13:13:05;5.93;;;0.80;;
29330;SDS011;16331;52.528;13.342;2023-04-24T13:15:32;1.83;;;0.50;;
29330;SDS011;16331;52.528;13.342;2023-04-24T13:17:59;3.05;;;0.93;;
29330;SDS011;16331;52.528;13.342;2023-04-24T13:20:25;0.70;;;0.50;;
29330;SDS011;16331;52.528;13.342;2023-04-24T13:22:52;1.25;;;0.70;;
29330;SDS011;16331;52.528;13.342;2023-04-24T13:25:18;3.92;;;1.58;;
29330;SDS011;16331;52.528;13.342;2023-04-24T13:27:45;0.98;;;0.50;;
29330;SDS011;16331;52.528;13.342;2023-04-24T13:30:11;6.38;;;1.08;;
29330;SDS011;16331;52.528;13.342;2023-04-24T13:32:38;2.35;;;0.85;;
29330;SDS011;16331;52.528;13.342;2023-04-24T13:35:04;2.35;;;0.85;;
29330;SDS011;16331;52.528;13.342;2023-04-24T13:37:30;2.17;;;0.57;;
29330;SDS011;16331;52.528;13.342;2023-04-24T13:39:56;3.17;;;0.60;;
29330;SDS011;16331;52.528;13.342;2023-04-24T13:42:23;5.72;;;0.90;;
29330;SDS011;16331;52.528;13.342;2023-04-24T13:44:49;5.68;;;0.70;;
29330;SDS011;16331;52.528;13.342;2023-04-24T13:47:16;1.23;;;0.63;;
29330;SDS011;16331;52.528;13.342;2023-04-24T13:49:42;3.22;;;0.80;;
29330;SDS011;16331;52.528;13.342;2023-04-24T13:52:08;2.95;;;0.68;;
29330;SDS011;16331;52.528;13.342;2023-04-24T13:54:35;1.10;;;0.60;;
29330;SDS011;16331;52.528;13.342;2023-04-24T13:57:01;0.63;;;0.50;;
29330;SDS011;16331;52.528;13.342;2023-04-24T13:59:28;1.30;;;0.55;;
29330;SDS011;16331;52.528;13.342;2023-04-24T14:01:54;0.88;;;0.50;;
29330;SDS011;16331;52.528;13.342;2023-04-24T14:04:21;0.65;;;0.50;;
29330;SDS011;16331;52.528;13.342;2023-04-24T14:06:47;1.30;;;0.80;;
29330;SDS011;16331;52.528;13.342;2023-04-24T14:09:13;2.45;;;0.55;;
29330;SDS011;16331;52.528;13.342;2023-04-24T14:11:39;0.88;;;0.57;;
29330;SDS011;16331;52.528;13.342;2023-04-24T14:14:06;2.03;;;0.70;;
29330;SDS011;16331;52.528;13.342;2023-04-24T14:16:32;0.50;;;0.40;;
29330;SDS011;16331;52.528;13.342;2023-04-24T14:18:59;2.00;;;0.60;;
29330;SDS011;16331;52.528;13.342;2023-04-24T14:21:25;5.15;;;0.60;;
29330;SDS011;16331;52.528;13.342;2023-04-24T14:23:52;4.28;;;0.60;;
29330;SDS011;16331;52.528;13.342;2023-04-24T14:26:19;2.60;;;0.88;;
29330;SDS011;16331;52.528;13.342;2023-04-24T14:28:45;0.88;;;0.60;;
29330;SDS011;16331;52.528;13.342;2023-04-24T14:31:13;3.03;;;0.90;;
29330;SDS011;16331;52.528;13.342;2023-04-24T14:33:39;0.68;;;0.50;;
29330;SDS011;16331;52.528;13.342;2023-04-24T14:36:05;0.77;;;0.75;;
29330;SDS011;16331;52.528;13.342;2023-04-24T14:38:32;0.50;;;0.40;;
29330;SDS011;16331;52.528;13.342;2023-04-24T14:40:59;1.23;;;0.60;;
29330;SDS011;16331;52.528;13.342;2023-04-24T14:43:26;1.83;;;0.80;;
29330;SDS011;16331;52.528;13.342;2023-04-24T14:45:52;0.60;;;0.40;;
29330;SDS011;16331;52.528;13.342;2023-04-24T14:48:20;1.80;;;0.80;;